createdAt,value
2023-03-21T00:01:29.459Z,4.53
2023-03-21T00:03:34.248Z,4.10
2023-03-21T00:05:42.244Z,4.57
2023-03-21T00:07:44.536Z,4.13
2023-03-21T00:09:46.656Z,5.38
2023-03-21T00:11:49.025Z,5.00
2023-03-21T00:13:51.177Z,4.57
2023-03-21T00:16:13.837Z,4.78
2023-03-21T00:18:17.908Z,5.05
2023-03-21T00:20:20.941Z,4.78
2023-03-21T00:22:23.021Z,4.05
2023-03-21T00:24:25.713Z,4.97
2023-03-21T00:26:27.981Z,4.30
2023-03-21T00:28:30.237Z,4.53
2023-03-21T00:30:32.494Z,5.15
2023-03-21T00:32:39.741Z,4.43
2023-03-21T00:35:00.209Z,4.55
2023-03-21T00:37:07.653Z,5.03
2023-03-21T00:39:10.052Z,5.47
2023-03-21T00:41:25.857Z,5.20
2023-03-21T00:43:34.110Z,6.03
2023-03-21T00:45:37.792Z,4.72
2023-03-21T00:47:40.327Z,4.80
2023-03-21T00:49:42.525Z,5.18
2023-03-21T00:51:44.982Z,5.55
2023-03-21T00:53:47.736Z,4.50
2023-03-21T00:55:50.383Z,4.95
2023-03-21T00:58:01.206Z,4.70
2023-03-21T01:00:07.633Z,4.85
2023-03-21T01:02:15.169Z,4.82
2023-03-21T01:04:18.388Z,4.65
2023-03-21T01:06:20.632Z,5.10
2023-03-21T01:08:29.375Z,4.93
2023-03-21T01:10:33.399Z,5.22
2023-03-21T01:12:35.818Z,5.80
2023-03-21T01:14:38.015Z,4.80
2023-03-21T01:16:40.298Z,5.40
2023-03-21T01:18:43.065Z,5.20
2023-03-21T01:20:47.640Z,5.10
2023-03-21T01:22:49.829Z,3.97
2023-03-21T01:24:58.605Z,4.80
2023-03-21T01:27:03.680Z,5.32
2023-03-21T01:29:06.127Z,5.10
2023-03-21T01:31:08.806Z,5.43
2023-03-21T01:33:10.947Z,4.57
2023-03-21T01:35:13.141Z,5.22
2023-03-21T01:37:15.116Z,5.72
2023-03-21T01:39:17.077Z,5.07
2023-03-21T01:41:33.599Z,4.57
2023-03-21T01:43:42.408Z,4.47
2023-03-21T01:45:51.975Z,6.00
2023-03-21T01:47:54.169Z,5.50
2023-03-21T01:50:01.704Z,5.05
2023-03-21T01:52:13.096Z,5.28
2023-03-21T01:54:27.188Z,4.95
2023-03-21T01:56:33.482Z,4.70
2023-03-21T01:58:37.096Z,5.10
2023-03-21T02:00:39.148Z,4.68
2023-03-21T02:02:52.186Z,4.75
2023-03-21T02:04:58.420Z,4.95
2023-03-21T02:07:08.082Z,5.25
2023-03-21T02:09:15.426Z,4.45
2023-03-21T02:11:19.194Z,6.05
2023-03-21T02:13:21.774Z,6.03
2023-03-21T02:15:26.828Z,5.00
2023-03-21T02:17:35.172Z,4.15
2023-03-21T02:19:52.681Z,5.00
2023-03-21T02:22:05.406Z,5.38
2023-03-21T02:24:09.546Z,4.88
2023-03-21T02:26:18.046Z,5.65
2023-03-21T02:28:28.604Z,4.57
2023-03-21T02:30:45.556Z,4.55
2023-03-21T02:32:54.313Z,5.65
2023-03-21T02:35:02.552Z,5.60
2023-03-21T02:37:09.115Z,4.88
2023-03-21T02:39:23.502Z,5.43
2023-03-21T02:41:38.252Z,4.90
2023-03-21T02:43:50.970Z,4.20
2023-03-21T02:46:00.273Z,5.38
2023-03-21T02:48:14.544Z,4.72
2023-03-21T02:50:23.983Z,5.10
2023-03-21T02:52:38.641Z,5.13
2023-03-21T02:54:48.327Z,4.88
2023-03-21T02:56:54.039Z,4.22
2023-03-21T02:58:56.365Z,4.43
2023-03-21T03:00:58.712Z,4.18
2023-03-21T03:03:09.319Z,4.60
2023-03-21T03:05:21.403Z,4.93
2023-03-21T03:07:29.940Z,4.95
2023-03-21T03:09:38.826Z,4.13
2023-03-21T03:11:45.101Z,4.18
2023-03-21T03:13:49.774Z,4.50
2023-03-21T03:16:05.377Z,4.82
2023-03-21T03:18:10.834Z,4.35
2023-03-21T03:20:19.613Z,4.40
2023-03-21T03:22:28.342Z,4.50
2023-03-21T03:24:38.529Z,4.38
2023-03-21T03:26:48.111Z,4.45
2023-03-21T03:28:55.413Z,3.83
2023-03-21T03:31:09.561Z,4.03
2023-03-21T03:33:17.123Z,4.00
2023-03-21T03:35:22.810Z,3.67
2023-03-21T03:37:28.546Z,4.03
2023-03-21T03:39:36.300Z,3.75
2023-03-21T03:44:09.002Z,3.10
2023-03-21T03:46:17.162Z,3.03
2023-03-21T03:48:26.615Z,3.80
2023-03-21T03:50:36.768Z,2.90
2023-03-21T03:52:55.575Z,2.38
2023-03-21T03:54:59.330Z,2.13
2023-03-21T03:57:01.636Z,2.42
2023-03-21T03:59:05.765Z,2.83
2023-03-21T04:01:08.177Z,2.03
2023-03-21T04:03:11.244Z,2.42
2023-03-21T04:05:13.951Z,2.22
2023-03-21T04:07:16.683Z,2.13
2023-03-21T04:09:23.523Z,3.03
2023-03-21T04:11:31.046Z,2.05
2023-03-21T04:13:34.229Z,1.48
2023-03-21T04:15:36.829Z,2.30
2023-03-21T04:17:39.896Z,2.60
2023-03-21T04:19:41.902Z,2.75
2023-03-21T04:21:44.083Z,1.92
2023-03-21T04:23:46.053Z,1.80
2023-03-21T04:25:56.435Z,2.20
2023-03-21T04:30:00.631Z,2.30
2023-03-21T04:32:03.630Z,1.80
2023-03-21T04:34:10.201Z,2.05
2023-03-21T04:36:24.883Z,2.35
2023-03-21T04:38:30.858Z,1.90
2023-03-21T04:40:32.964Z,1.65
2023-03-21T04:42:35.367Z,1.70
2023-03-21T04:44:37.742Z,2.00
2023-03-21T04:46:40.409Z,1.60
2023-03-21T04:48:42.362Z,1.52
2023-03-21T04:50:45.882Z,1.60
2023-03-21T04:52:48.879Z,1.30
2023-03-21T04:54:51.242Z,2.55
2023-03-21T04:56:53.576Z,1.52
2023-03-21T04:58:55.556Z,1.58
2023-03-21T05:00:57.593Z,1.63
2023-03-21T05:03:00.267Z,1.50
2023-03-21T05:05:02.578Z,1.83
2023-03-21T05:07:04.854Z,1.27
2023-03-21T05:09:07.199Z,1.30
2023-03-21T05:11:09.184Z,2.63
2023-03-21T05:13:11.195Z,1.58
2023-03-21T05:15:13.164Z,2.10
2023-03-21T05:17:23.330Z,2.65
2023-03-21T05:19:31.294Z,2.40
2023-03-21T05:21:41.821Z,1.60
2023-03-21T05:23:44.076Z,1.50
2023-03-21T05:25:46.470Z,1.35
2023-03-21T05:27:54.228Z,1.63
2023-03-21T05:29:56.314Z,2.58
2023-03-21T05:31:59.933Z,2.35
2023-03-21T05:34:02.180Z,1.40
2023-03-21T05:36:04.456Z,1.98
2023-03-21T05:38:06.460Z,2.42
2023-03-21T05:40:10.632Z,1.90
2023-03-21T05:42:12.855Z,1.95
2023-03-21T05:44:14.796Z,1.73
2023-03-21T05:46:17.793Z,1.90
2023-03-21T05:48:19.913Z,2.03
2023-03-21T05:50:21.844Z,1.80
2023-03-21T05:52:24.156Z,1.50
2023-03-21T05:54:26.100Z,0.98
2023-03-21T05:56:28.065Z,1.73
2023-03-21T05:58:30.732Z,1.77
2023-03-21T06:00:32.710Z,1.30
2023-03-21T06:02:34.722Z,1.15
2023-03-21T06:04:36.820Z,1.65
2023-03-21T06:06:38.793Z,1.88
2023-03-21T06:08:40.812Z,1.77
2023-03-21T06:10:42.886Z,1.33
2023-03-21T06:12:44.886Z,1.20
2023-03-21T06:14:47.190Z,1.73
2023-03-21T06:16:49.266Z,1.75
2023-03-21T06:18:51.221Z,1.58
2023-03-21T06:20:54.566Z,1.48
2023-03-21T06:22:56.512Z,1.95
2023-03-21T06:24:58.562Z,1.92
2023-03-21T06:27:02.811Z,1.25
2023-03-21T06:29:06.446Z,1.48
2023-03-21T06:31:08.613Z,1.13
2023-03-21T06:33:10.764Z,1.50
2023-03-21T06:35:12.801Z,1.73
2023-03-21T06:37:14.886Z,1.50
2023-03-21T06:39:17.091Z,2.10
2023-03-21T06:41:19.766Z,1.50
2023-03-21T06:43:21.695Z,1.42
2023-03-21T06:45:25.638Z,1.20
2023-03-21T06:47:27.620Z,2.33
2023-03-21T06:49:29.733Z,1.35
2023-03-21T06:51:31.800Z,1.17
2023-03-21T06:53:35.722Z,1.75
2023-03-21T06:55:38.414Z,1.50
2023-03-21T06:57:40.965Z,1.55
2023-03-21T06:59:42.960Z,1.20
2023-03-21T07:01:44.992Z,1.38
2023-03-21T07:03:47.448Z,1.38
2023-03-21T07:05:49.473Z,1.38
2023-03-21T07:07:51.419Z,1.70
2023-03-21T07:09:53.336Z,1.52
2023-03-21T07:11:55.428Z,1.20
2023-03-21T07:13:57.725Z,1.30
2023-03-21T07:16:00.682Z,1.30
2023-03-21T07:18:02.761Z,1.13
2023-03-21T07:20:08.475Z,0.98
2023-03-21T07:22:10.543Z,1.58
2023-03-21T07:24:12.609Z,1.67
2023-03-21T07:26:16.246Z,1.45
2023-03-21T07:28:19.011Z,1.05
2023-03-21T07:30:21.738Z,0.90
2023-03-21T07:32:23.761Z,0.93
2023-03-21T07:34:27.577Z,0.73
2023-03-21T07:36:29.610Z,1.00
2023-03-21T07:38:31.933Z,0.70
2023-03-21T07:40:34.143Z,0.60
2023-03-21T07:42:37.435Z,0.82
2023-03-21T07:44:39.577Z,0.52
2023-03-21T07:46:41.732Z,1.38
2023-03-21T07:48:43.873Z,0.55
2023-03-21T07:50:46.832Z,0.88
2023-03-21T07:52:49.113Z,0.70
2023-03-21T07:54:51.166Z,0.82
2023-03-21T07:56:53.234Z,0.70
2023-03-21T07:58:55.378Z,1.17
2023-03-21T08:00:59.095Z,0.80
2023-03-21T08:03:01.305Z,0.90
2023-03-21T08:05:04.299Z,0.65
2023-03-21T08:07:06.593Z,0.90
2023-03-21T08:09:09.159Z,0.85
2023-03-21T08:11:12.197Z,0.90
2023-03-21T08:13:14.854Z,0.90
2023-03-21T08:15:17.317Z,0.80
2023-03-21T08:17:19.453Z,0.80
2023-03-21T08:19:22.015Z,1.10
2023-03-21T08:21:24.329Z,0.88
2023-03-21T08:23:27.351Z,1.30
2023-03-21T08:25:29.738Z,0.88
2023-03-21T08:27:33.370Z,1.10
2023-03-21T08:29:40.571Z,0.98
2023-03-21T08:31:42.904Z,1.05
2023-03-21T08:33:45.422Z,1.33
2023-03-21T08:35:47.821Z,1.20
2023-03-21T08:37:50.089Z,1.10
2023-03-21T08:39:52.266Z,1.15
2023-03-21T08:41:54.944Z,1.33
2023-03-21T08:43:57.223Z,1.67
2023-03-21T08:45:59.848Z,1.33
2023-03-21T08:48:02.072Z,1.50
2023-03-21T08:50:07.092Z,2.00
2023-03-21T08:52:09.582Z,1.58
2023-03-21T08:54:17.956Z,1.38
2023-03-21T08:56:21.342Z,1.10
2023-03-21T08:58:23.622Z,1.98
2023-03-21T09:00:25.911Z,1.52
2023-03-21T09:02:28.395Z,1.60
2023-03-21T09:04:31.468Z,1.58
2023-03-21T09:06:33.975Z,1.45
2023-03-21T09:08:36.141Z,1.38
2023-03-21T09:10:38.702Z,1.77
2023-03-21T09:12:41.455Z,1.38
2023-03-21T09:14:43.577Z,1.90
2023-03-21T09:16:46.440Z,1.50
2023-03-21T09:18:50.846Z,1.20
2023-03-21T09:20:53.518Z,1.40
2023-03-21T09:23:03.965Z,1.10
2023-03-21T09:25:08.616Z,1.35
2023-03-21T09:27:10.696Z,1.17
2023-03-21T09:29:29.030Z,1.60
2023-03-21T09:31:37.624Z,1.10
2023-03-21T09:33:53.706Z,0.90
2023-03-21T09:36:02.869Z,0.82
2023-03-21T09:38:08.629Z,1.15
2023-03-21T09:40:21.986Z,0.95
2023-03-21T09:42:35.645Z,1.00
2023-03-21T09:44:46.552Z,0.68
2023-03-21T09:46:53.408Z,1.23
2023-03-21T09:48:59.033Z,0.90
2023-03-21T09:51:03.108Z,0.80
2023-03-21T09:53:12.725Z,1.02
2023-03-21T09:55:20.328Z,0.88
2023-03-21T09:57:32.422Z,1.35
2023-03-21T09:59:50.683Z,1.02
2023-03-21T10:01:53.234Z,0.95
2023-03-21T10:03:57.213Z,0.80
2023-03-21T10:06:01.573Z,1.00
2023-03-21T10:08:10.460Z,0.63
2023-03-21T10:10:17.332Z,0.90
2023-03-21T10:12:22.667Z,0.88
2023-03-21T10:14:31.818Z,1.30
2023-03-21T10:16:42.823Z,0.98
2023-03-21T10:18:49.798Z,0.82
2023-03-21T10:21:07.150Z,0.88
2023-03-21T10:23:18.294Z,1.50
2023-03-21T10:25:35.159Z,0.50
2023-03-21T10:27:40.533Z,0.90
2023-03-21T10:29:48.077Z,0.70
2023-03-21T10:31:55.601Z,0.50
2023-03-21T10:34:05.511Z,0.50
2023-03-21T10:36:21.337Z,0.50
2023-03-21T10:38:28.839Z,0.65
2023-03-21T10:40:34.998Z,0.80
2023-03-21T10:42:45.090Z,0.82
2023-03-21T10:45:00.394Z,1.02
2023-03-21T10:47:10.006Z,0.63
2023-03-21T10:49:18.283Z,1.02
2023-03-21T10:51:27.911Z,0.50
2023-03-21T10:53:43.036Z,0.60
2023-03-21T10:55:53.629Z,0.65
2023-03-21T10:58:02.677Z,0.50
2023-03-21T11:00:19.930Z,0.30
2023-03-21T11:02:31.671Z,0.60
2023-03-21T11:04:39.912Z,0.82
2023-03-21T11:06:56.485Z,0.30
2023-03-21T11:09:15.385Z,0.47
2023-03-21T11:11:28.969Z,0.63
2023-03-21T11:13:37.744Z,0.70
2023-03-21T11:15:49.314Z,0.60
2023-03-21T11:17:55.646Z,0.40
2023-03-21T11:20:08.090Z,0.80
2023-03-21T11:22:15.332Z,0.60
2023-03-21T11:24:22.514Z,0.43
2023-03-21T11:26:31.796Z,0.50
2023-03-21T11:28:38.678Z,0.47
2023-03-21T11:30:53.975Z,0.68
2023-03-21T11:32:58.430Z,0.70
2023-03-21T11:35:04.187Z,0.40
2023-03-21T11:37:07.323Z,0.40
2023-03-21T11:39:14.007Z,0.30
2023-03-21T11:41:22.365Z,0.63
2023-03-21T11:43:32.055Z,0.38
2023-03-21T11:45:36.139Z,1.05
2023-03-21T11:47:39.990Z,0.43
2023-03-21T11:49:42.141Z,0.68
2023-03-21T11:51:54.296Z,0.50
2023-03-21T11:54:00.837Z,0.30
2023-03-21T11:56:06.702Z,1.00
2023-03-21T11:58:17.990Z,0.45
2023-03-21T12:00:26.234Z,0.60
2023-03-21T12:02:34.716Z,0.57
2023-03-21T12:04:41.706Z,0.60
2023-03-21T12:06:55.422Z,0.77
2023-03-21T12:09:02.173Z,0.63
2023-03-21T12:11:16.464Z,0.50
2023-03-21T12:13:30.633Z,0.90
2023-03-21T12:15:44.106Z,0.45
2023-03-21T12:17:58.715Z,0.85
2023-03-21T12:20:06.074Z,0.50
2023-03-21T12:22:11.667Z,0.40
2023-03-21T12:24:21.020Z,0.63
2023-03-21T12:26:29.613Z,0.40
2023-03-21T12:28:43.605Z,0.75
2023-03-21T12:30:56.938Z,0.57
2023-03-21T12:33:03.307Z,0.40
2023-03-21T12:35:11.644Z,0.75
2023-03-21T12:37:17.401Z,0.82
2023-03-21T12:39:28.463Z,0.50
2023-03-21T12:41:37.874Z,1.25
2023-03-21T12:43:46.182Z,0.85
2023-03-21T12:45:53.711Z,1.25
2023-03-21T12:48:04.239Z,0.77
2023-03-21T12:50:15.761Z,1.27
2023-03-21T12:52:24.400Z,0.80
2023-03-21T12:54:30.018Z,0.63
2023-03-21T12:56:41.947Z,0.57
2023-03-21T12:58:51.140Z,0.82
2023-03-21T13:00:58.860Z,1.13
2023-03-21T13:03:05.548Z,1.08
2023-03-21T13:05:11.924Z,0.88
2023-03-21T13:07:20.261Z,0.80
2023-03-21T13:09:37.698Z,1.10
2023-03-21T13:11:41.061Z,0.93
2023-03-21T13:13:48.122Z,1.10
2023-03-21T13:15:57.835Z,0.82
2023-03-21T13:18:03.626Z,1.20
2023-03-21T13:20:11.914Z,0.75
2023-03-21T13:22:17.073Z,1.20
2023-03-21T13:24:22.809Z,0.80
2023-03-21T13:26:34.158Z,0.95
2023-03-21T13:28:37.448Z,0.77
2023-03-21T13:30:39.814Z,1.42
2023-03-21T13:32:45.034Z,0.80
2023-03-21T13:34:55.547Z,0.65
2023-03-21T13:36:58.247Z,0.85
2023-03-21T13:39:04.515Z,0.68
2023-03-21T13:41:12.988Z,0.70
2023-03-21T13:43:26.989Z,0.52
2023-03-21T13:45:35.045Z,0.90
2023-03-21T13:47:43.456Z,0.88
2023-03-21T13:50:08.507Z,0.85
2023-03-21T13:52:12.248Z,1.55
2023-03-21T13:54:15.134Z,0.90
2023-03-21T13:56:18.117Z,0.70
2023-03-21T13:58:26.780Z,0.90
2023-03-21T14:00:31.253Z,0.57
2023-03-21T14:02:34.786Z,1.00
2023-03-21T14:04:42.571Z,1.17
2023-03-21T14:06:49.146Z,0.60
2023-03-21T14:08:51.550Z,0.70
2023-03-21T14:10:59.946Z,1.00
2023-03-21T14:13:05.241Z,0.85
2023-03-21T14:15:16.760Z,0.70
2023-03-21T14:17:25.474Z,0.98
2023-03-21T14:19:31.989Z,1.65
2023-03-21T14:21:36.233Z,1.05
2023-03-21T14:23:39.320Z,1.00
2023-03-21T14:25:47.569Z,0.80
2023-03-21T14:27:54.918Z,1.13
2023-03-21T14:29:58.860Z,1.30
2023-03-21T14:32:02.523Z,0.70
2023-03-21T14:34:04.968Z,0.52
2023-03-21T14:36:11.995Z,1.52
2023-03-21T14:38:20.992Z,0.80
2023-03-21T14:40:26.990Z,0.90
2023-03-21T14:42:35.124Z,1.00
2023-03-21T14:44:55.016Z,1.13
2023-03-21T14:47:06.049Z,0.52
2023-03-21T14:49:12.279Z,0.50
2023-03-21T14:51:14.644Z,0.73
2023-03-21T14:53:22.044Z,0.60
2023-03-21T14:55:24.821Z,0.85
2023-03-21T14:57:31.121Z,0.55
2023-03-21T14:59:36.550Z,0.73
2023-03-21T15:01:40.132Z,1.27
2023-03-21T15:03:46.669Z,0.77
2023-03-21T15:05:48.986Z,0.80
2023-03-21T15:07:56.879Z,1.35
2023-03-21T15:10:03.992Z,0.85
2023-03-21T15:12:09.484Z,0.82
2023-03-21T15:14:14.619Z,1.73
2023-03-21T15:16:26.633Z,0.88
2023-03-21T15:18:33.511Z,1.30
2023-03-21T15:20:38.737Z,0.90
2023-03-21T15:22:45.499Z,1.10
2023-03-21T15:24:54.071Z,1.35
2023-03-21T15:27:01.637Z,0.85
2023-03-21T15:29:06.593Z,1.00
2023-03-21T15:31:18.867Z,0.90
2023-03-21T15:33:24.064Z,1.70
2023-03-21T15:35:32.479Z,1.00
2023-03-21T15:37:37.076Z,1.38
2023-03-21T15:39:55.085Z,1.45
2023-03-21T15:42:02.102Z,1.40
2023-03-21T15:44:08.932Z,1.05
2023-03-21T15:46:16.048Z,1.23
2023-03-21T15:48:25.396Z,1.70
2023-03-21T15:50:29.585Z,0.80
2023-03-21T15:52:32.830Z,1.02
2023-03-21T15:54:42.562Z,2.35
2023-03-21T15:56:46.220Z,1.33
2023-03-21T15:58:52.580Z,1.27
2023-03-21T16:00:57.760Z,1.05
2023-03-21T16:03:08.723Z,1.10
2023-03-21T16:05:17.226Z,0.85
2023-03-21T16:07:21.420Z,0.75
2023-03-21T16:09:24.745Z,1.20
2023-03-21T16:11:29.432Z,1.30
2023-03-21T16:13:31.560Z,0.80
2023-03-21T16:15:53.204Z,1.33
2023-03-21T16:18:05.346Z,1.23
2023-03-21T16:20:21.125Z,1.00
2023-03-21T16:22:30.693Z,1.13
2023-03-21T16:24:39.468Z,0.80
2023-03-21T16:26:53.234Z,0.85
2023-03-21T16:29:05.877Z,1.48
2023-03-21T16:31:24.684Z,0.93
2023-03-21T16:33:33.826Z,1.63
2023-03-21T16:35:51.215Z,0.85
2023-03-21T16:38:10.533Z,1.13
2023-03-21T16:40:23.101Z,1.02
2023-03-21T16:42:40.668Z,2.28
2023-03-21T16:44:52.842Z,1.25
2023-03-21T16:49:24.208Z,1.20
2023-03-21T16:52:11.479Z,0.82
2023-03-21T16:54:15.326Z,0.90
2023-03-21T16:56:39.545Z,1.63
2023-03-21T16:58:47.777Z,1.60
2023-03-21T17:00:53.032Z,1.02
2023-03-21T17:03:03.293Z,1.35
2023-03-21T17:05:12.613Z,2.55
2023-03-21T17:07:27.062Z,1.25
2023-03-21T17:09:34.386Z,2.17
2023-03-21T17:12:00.821Z,0.98
2023-03-21T17:14:11.629Z,1.55
2023-03-21T17:19:06.903Z,0.85
2023-03-21T17:21:17.835Z,1.40
2023-03-21T17:23:22.730Z,1.10
2023-03-21T17:25:26.892Z,1.63
2023-03-21T17:27:35.964Z,1.33
2023-03-21T17:29:46.512Z,1.00
2023-03-21T17:32:04.467Z,1.08
2023-03-21T17:34:12.721Z,1.38
2023-03-21T17:36:22.375Z,1.50
2023-03-21T17:38:28.143Z,1.25
2023-03-21T17:40:37.335Z,1.63
2023-03-21T17:42:52.904Z,1.77
2023-03-21T17:45:21.325Z,1.17
2023-03-21T17:47:36.833Z,1.88
2023-03-21T17:49:55.466Z,0.90
2023-03-21T17:52:07.133Z,0.93
2023-03-21T17:54:39.632Z,0.90
2023-03-21T17:56:51.617Z,2.13
2023-03-21T17:59:17.976Z,1.27
2023-03-21T18:02:27.647Z,0.77
2023-03-21T18:04:35.489Z,1.50
2023-03-21T18:07:01.555Z,0.93
2023-03-21T18:09:18.469Z,1.20
2023-03-21T18:11:26.922Z,1.23
2023-03-21T18:13:50.580Z,1.33
2023-03-21T18:16:19.375Z,0.93
2023-03-21T18:18:56.503Z,0.82
2023-03-21T18:21:20.334Z,1.33
2023-03-21T18:23:26.436Z,1.02
2023-03-21T18:25:42.472Z,0.98
2023-03-21T18:28:13.144Z,1.13
2023-03-21T18:30:45.187Z,1.10
2023-03-21T18:32:49.832Z,1.10
2023-03-21T18:34:58.951Z,1.70
2023-03-21T18:39:29.351Z,1.52
2023-03-21T18:41:50.045Z,1.20
2023-03-21T18:44:09.208Z,1.77
2023-03-21T18:46:25.931Z,1.58
2023-03-21T18:48:33.807Z,1.25
2023-03-21T18:50:43.317Z,0.98
2023-03-21T18:52:48.959Z,1.67
2023-03-21T18:54:55.420Z,1.27
2023-03-21T18:59:25.569Z,1.08
2023-03-21T19:01:31.392Z,0.80
2023-03-21T19:03:37.585Z,0.70
2023-03-21T19:05:50.812Z,1.38
2023-03-21T19:07:59.243Z,1.20
2023-03-21T19:10:23.970Z,1.23
2023-03-21T19:12:29.897Z,2.00
2023-03-21T19:14:36.179Z,1.30
2023-03-21T19:17:13.870Z,1.95
2023-03-21T19:19:11.830Z,1.88
2023-03-21T19:21:21.755Z,1.40
2023-03-21T19:23:56.334Z,2.07
2023-03-21T19:26:00.412Z,0.73
2023-03-21T19:28:11.911Z,0.80
2023-03-21T19:30:25.098Z,1.55
2023-03-21T19:32:36.824Z,1.00
2023-03-21T19:34:43.526Z,0.90
2023-03-21T19:36:56.156Z,2.05
2023-03-21T19:39:01.398Z,1.10
2023-03-21T19:41:12.121Z,1.60
2023-03-21T19:47:52.695Z,1.23
2023-03-21T19:52:24.611Z,1.63
2023-03-21T19:54:35.786Z,1.30
2023-03-21T19:56:48.245Z,1.60
2023-03-21T19:58:50.924Z,1.50
2023-03-21T20:00:53.810Z,0.98
2023-03-21T20:03:00.336Z,2.63
2023-03-21T20:05:10.962Z,1.02
2023-03-21T20:07:18.573Z,1.95
2023-03-21T20:09:51.143Z,1.30
2023-03-21T20:11:53.486Z,1.13
2023-03-21T20:14:03.951Z,1.80
2023-03-21T20:16:14.066Z,6.20
2023-03-21T20:18:16.271Z,10.35
2023-03-21T20:20:19.495Z,1.70
2023-03-21T20:22:31.168Z,1.27
2023-03-21T20:24:44.564Z,1.95
2023-03-21T20:26:47.243Z,1.42
2023-03-21T20:29:00.102Z,2.58
2023-03-21T20:31:06.700Z,1.33
2023-03-21T20:33:09.156Z,0.88
2023-03-21T20:35:20.651Z,0.70
2023-03-21T20:37:23.333Z,1.17
2023-03-21T20:39:27.979Z,0.90
2023-03-21T20:41:30.895Z,1.42
2023-03-21T20:44:24.419Z,0.93
2023-03-21T20:46:00.783Z,1.27
2023-03-21T20:48:03.394Z,1.23
2023-03-21T20:50:08.097Z,1.77
2023-03-21T20:54:32.393Z,0.90
2023-03-21T20:56:34.943Z,1.15
2023-03-21T20:59:08.298Z,1.60
2023-03-21T21:01:04.929Z,1.20
2023-03-21T21:03:07.060Z,1.40
2023-03-21T21:05:25.311Z,1.35
2023-03-21T21:07:29.952Z,0.85
2023-03-21T21:09:32.801Z,1.27
2023-03-21T21:12:06.128Z,1.55
2023-03-21T21:13:57.056Z,1.25
2023-03-21T21:15:59.361Z,1.48
2023-03-21T21:18:07.097Z,0.50
2023-03-21T21:20:16.873Z,1.02
2023-03-21T21:22:19.329Z,1.00
2023-03-21T21:24:21.399Z,1.10
2023-03-21T21:26:23.563Z,1.00
2023-03-21T21:28:29.004Z,1.42
2023-03-21T21:30:32.827Z,1.42
2023-03-21T21:32:35.248Z,0.98
2023-03-21T21:34:37.622Z,1.00
2023-03-21T21:36:40.029Z,0.70
2023-03-21T21:38:42.223Z,1.50
2023-03-21T21:40:46.315Z,1.48
2023-03-21T21:42:48.514Z,1.20
2023-03-21T21:44:50.659Z,2.03
2023-03-21T21:46:52.831Z,1.15
2023-03-21T21:48:54.904Z,0.80
2023-03-21T21:50:57.039Z,1.33
2023-03-21T21:53:03.962Z,0.95
2023-03-21T21:55:08.447Z,1.65
2023-03-21T21:57:11.209Z,1.67
2023-03-21T21:59:16.301Z,0.98
2023-03-21T22:01:20.882Z,1.20
2023-03-21T22:03:23.491Z,1.10
2023-03-21T22:05:26.938Z,0.80
2023-03-21T22:07:29.175Z,1.10
2023-03-21T22:09:31.404Z,1.00
2023-03-21T22:11:33.886Z,1.25
2023-03-21T22:13:36.882Z,0.60
2023-03-21T22:15:38.948Z,1.30
2023-03-21T22:17:41.957Z,1.48
2023-03-21T22:19:52.703Z,1.05
2023-03-21T22:22:01.141Z,1.02
2023-03-21T22:24:03.198Z,1.23
2023-03-21T22:26:05.796Z,0.70
2023-03-21T22:28:07.895Z,1.00
2023-03-21T22:30:13.957Z,1.15
2023-03-21T22:32:16.044Z,1.10
2023-03-21T22:34:18.108Z,1.50
2023-03-21T22:36:20.452Z,1.52
2023-03-21T22:38:24.413Z,1.45
2023-03-21T22:40:26.529Z,1.27
2023-03-21T22:42:28.807Z,1.17
2023-03-21T22:44:35.344Z,0.80
2023-03-21T22:46:37.411Z,1.20
2023-03-21T22:48:39.580Z,1.00
2023-03-21T22:50:42.656Z,1.30
2023-03-21T22:52:44.656Z,1.58
2023-03-21T22:54:47.709Z,1.25
2023-03-21T22:56:49.717Z,1.20
2023-03-21T22:58:51.657Z,1.08
2023-03-21T23:00:53.780Z,0.93
2023-03-21T23:02:56.108Z,1.23
2023-03-21T23:04:58.234Z,0.70
2023-03-21T23:07:00.618Z,1.38
2023-03-21T23:09:03.077Z,0.90
2023-03-21T23:11:07.704Z,0.90
2023-03-21T23:13:09.888Z,1.15
2023-03-21T23:15:12.135Z,1.13
2023-03-21T23:17:14.191Z,1.25
2023-03-21T23:19:16.209Z,1.15
2023-03-21T23:21:18.269Z,1.25
2023-03-21T23:23:20.273Z,1.33
2023-03-21T23:25:22.388Z,1.48
2023-03-21T23:27:24.517Z,1.52
2023-03-21T23:29:26.707Z,1.23
2023-03-21T23:31:29.211Z,1.73
2023-03-21T23:33:32.043Z,1.08
2023-03-21T23:35:38.424Z,2.05
2023-03-21T23:37:42.605Z,0.90
2023-03-21T23:39:45.411Z,1.17
2023-03-21T23:41:47.437Z,1.20
2023-03-21T23:43:49.880Z,1.38
2023-03-21T23:45:52.224Z,2.70
2023-03-21T23:47:54.293Z,1.52
2023-03-21T23:49:56.299Z,0.95
2023-03-21T23:51:58.418Z,0.70
2023-03-21T23:54:00.641Z,0.75
2023-03-21T23:56:02.740Z,1.02
2023-03-21T23:58:05.969Z,0.80
